createdAt,value
2016-11-15T00:00:54.428Z,1019.25
2016-11-15T00:02:10.509Z,1019.25
2016-11-15T00:03:25.203Z,1019.23
2016-11-15T00:04:39.270Z,1019.15
2016-11-15T00:05:54.325Z,1019.16
2016-11-15T00:07:07.789Z,1019.14
2016-11-15T00:08:23.703Z,1019.14
2016-11-15T00:09:39.311Z,1019.14
2016-11-15T00:10:52.762Z,1019.1
2016-11-15T00:12:06.476Z,1019.08
2016-11-15T00:13:21.308Z,1019.09
2016-11-15T00:14:36.495Z,1019.05
2016-11-15T00:15:50.902Z,1019.07
2016-11-15T00:17:06.616Z,1019.06
2016-11-15T00:18:21.631Z,1019.07
2016-11-15T00:19:34.422Z,1019
2016-11-15T00:20:49.485Z,1018.98
2016-11-15T00:22:06.029Z,1018.97
2016-11-15T00:23:19.103Z,1018.93
2016-11-15T00:24:35.781Z,1018.94
2016-11-15T00:25:50.610Z,1018.92
2016-11-15T00:27:05.690Z,1018.89
2016-11-15T00:28:19.075Z,1018.86
2016-11-15T00:29:31.067Z,1018.81
2016-11-15T00:30:45.645Z,1018.85
2016-11-15T00:32:01.700Z,1018.79
2016-11-15T00:33:17.613Z,1018.75
2016-11-15T00:34:32.778Z,1018.71
2016-11-15T00:35:48.128Z,1018.69
2016-11-15T00:37:00.241Z,1018.66
2016-11-15T00:38:15.071Z,1018.68
2016-11-15T00:39:29.773Z,1018.66
2016-11-15T00:40:45.666Z,1018.63
2016-11-15T00:41:59.187Z,1018.58
2016-11-15T00:43:14.997Z,1018.63
2016-11-15T00:44:31.113Z,1018.63
2016-11-15T00:45:47.426Z,1018.65
2016-11-15T00:47:03.551Z,1018.66
2016-11-15T00:48:17.745Z,1018.71
2016-11-15T00:49:30.721Z,1018.68
2016-11-15T00:50:44.047Z,1018.69
2016-11-15T00:51:59.161Z,1018.7
2016-11-15T00:53:14.162Z,1018.71
2016-11-15T00:54:30.630Z,1018.66
2016-11-15T00:55:44.010Z,1018.61
2016-11-15T00:56:56.960Z,1018.64
2016-11-15T00:58:10.104Z,1018.62
2016-11-15T00:59:25.233Z,1018.61
2016-11-15T01:00:38.989Z,1018.63
2016-11-15T01:01:53.999Z,1018.55
2016-11-15T01:03:08.987Z,1018.6
2016-11-15T01:04:21.018Z,1018.59
2016-11-15T01:05:35.697Z,1018.55
2016-11-15T01:06:50.894Z,1018.51
2016-11-15T01:08:06.817Z,1018.5
2016-11-15T01:09:19.906Z,1018.51
2016-11-15T01:10:36.214Z,1018.45
2016-11-15T01:11:52.082Z,1018.46
2016-11-15T01:13:06.988Z,1018.48
2016-11-15T01:14:21.887Z,1018.49
2016-11-15T01:15:36.985Z,1018.45
2016-11-15T01:16:53.017Z,1018.39
2016-11-15T01:18:08.647Z,1018.38
2016-11-15T01:19:23.707Z,1018.38
2016-11-15T01:20:40.220Z,1018.36
2016-11-15T01:21:56.936Z,1018.38
2016-11-15T01:23:13.450Z,1018.35
2016-11-15T01:24:24.947Z,1018.29
2016-11-15T01:25:39.486Z,1018.36
2016-11-15T01:26:53.829Z,1018.29
2016-11-15T01:28:10.312Z,1018.31
2016-11-15T01:29:23.790Z,1018.29
2016-11-15T01:30:39.971Z,1018.26
2016-11-15T01:31:55.201Z,1018.27
2016-11-15T01:33:06.746Z,1018.27
2016-11-15T01:34:23.192Z,1018.25
2016-11-15T01:35:34.863Z,1018.25
2016-11-15T01:36:51.286Z,1018.27
2016-11-15T01:38:07.581Z,1018.26
2016-11-15T01:39:21.086Z,1018.24
2016-11-15T01:40:36.240Z,1018.22
2016-11-15T01:41:50.838Z,1018.22
2016-11-15T01:43:04.527Z,1018.15
2016-11-15T01:44:20.696Z,1018.17
2016-11-15T01:45:32.863Z,1018.14
2016-11-15T01:46:47.392Z,1018.11
2016-11-15T01:48:02.029Z,1018.13
2016-11-15T01:49:15.481Z,1018.12
2016-11-15T01:50:29.170Z,1018.08
2016-11-15T01:51:42.399Z,1018.1
2016-11-15T01:52:55.858Z,1018.05
2016-11-15T01:54:09.876Z,1018.03
2016-11-15T01:55:23.465Z,1018.02
2016-11-15T01:56:36.543Z,1018
2016-11-15T01:57:51.204Z,1017.98
2016-11-15T01:59:05.030Z,1017.99
2016-11-15T02:00:20.990Z,1017.92
2016-11-15T02:01:34.163Z,1017.94
2016-11-15T02:02:48.803Z,1017.94
2016-11-15T02:04:03.007Z,1017.91
2016-11-15T02:05:16.212Z,1017.88
2016-11-15T02:06:30.697Z,1017.84
2016-11-15T02:07:44.068Z,1017.78
2016-11-15T02:08:57.202Z,1017.76
2016-11-15T02:10:12.479Z,1017.72
2016-11-15T02:11:28.850Z,1017.73
2016-11-15T02:12:42.244Z,1017.7
2016-11-15T02:13:58.099Z,1017.71
2016-11-15T02:15:12.805Z,1017.65
2016-11-15T02:16:26.462Z,1017.64
2016-11-15T02:17:41.423Z,1017.65
2016-11-15T02:18:56.186Z,1017.59
2016-11-15T02:20:11.231Z,1017.57
2016-11-15T02:21:26.860Z,1017.61
2016-11-15T02:22:39.943Z,1017.57
2016-11-15T02:23:52.118Z,1017.54
2016-11-15T02:25:07.255Z,1017.57
2016-11-15T02:26:21.276Z,1017.54
2016-11-15T02:27:33.190Z,1017.48
2016-11-15T02:28:48.036Z,1017.5
2016-11-15T02:30:04.237Z,1017.47
2016-11-15T02:31:20.824Z,1017.5
2016-11-15T02:32:35.347Z,1017.44
2016-11-15T02:33:52.170Z,1017.45
2016-11-15T02:35:08.044Z,1017.5
2016-11-15T02:36:23.768Z,1017.49
2016-11-15T02:37:38.940Z,1017.46
2016-11-15T02:38:55.247Z,1017.46
2016-11-15T02:40:09.912Z,1017.42
2016-11-15T02:41:23.859Z,1017.46
2016-11-15T02:42:38.705Z,1017.39
2016-11-15T02:43:54.038Z,1017.34
2016-11-15T02:45:10.313Z,1017.33
2016-11-15T02:46:26.641Z,1017.37
2016-11-15T02:47:42.506Z,1017.35
2016-11-15T02:48:58.806Z,1017.29
2016-11-15T02:50:13.387Z,1017.27
2016-11-15T02:51:27.790Z,1017.23
2016-11-15T02:52:42.203Z,1017.22
2016-11-15T02:53:56.995Z,1017.17
2016-11-15T02:55:13.668Z,1017.19
2016-11-15T02:56:29.839Z,1017.14
2016-11-15T02:57:43.360Z,1017.1
2016-11-15T02:58:59.658Z,1017.07
2016-11-15T03:00:11.177Z,1017.09
2016-11-15T03:01:23.421Z,1017.07
2016-11-15T03:02:36.707Z,1017.08
2016-11-15T03:03:51.351Z,1017.13
2016-11-15T03:05:06.786Z,1017.11
2016-11-15T03:06:21.065Z,1017.06
2016-11-15T03:07:35.731Z,1017.03
2016-11-15T03:08:50.040Z,1017.02
2016-11-15T03:10:06.140Z,1017
2016-11-15T03:11:20.390Z,1017.06
2016-11-15T03:12:34.615Z,1016.96
2016-11-15T03:13:51.116Z,1016.97
2016-11-15T03:15:04.230Z,1017.02
2016-11-15T03:16:18.538Z,1017.01
2016-11-15T03:17:34.047Z,1017.04
2016-11-15T03:18:49.293Z,1017
2016-11-15T03:20:05.351Z,1017.05
2016-11-15T03:21:21.652Z,1017.04
2016-11-15T03:22:34.715Z,1017.02
2016-11-15T03:23:50.771Z,1017.03
2016-11-15T03:25:06.376Z,1017.06
2016-11-15T03:26:22.006Z,1017.05
2016-11-15T03:27:36.788Z,1017.04
2016-11-15T03:28:52.987Z,1017.07
2016-11-15T03:30:07.697Z,1017.03
2016-11-15T03:31:24.155Z,1017.08
2016-11-15T03:32:40.998Z,1017.04
2016-11-15T03:33:55.837Z,1017.03
2016-11-15T03:35:09.376Z,1017.01
2016-11-15T03:36:25.570Z,1017.04
2016-11-15T03:37:41.850Z,1017.01
2016-11-15T03:38:56.313Z,1017.09
2016-11-15T03:40:10.779Z,1017.03
2016-11-15T03:41:24.017Z,1017
2016-11-15T03:42:39.335Z,1017
2016-11-15T03:43:54.571Z,1016.98
2016-11-15T03:45:10.098Z,1016.95
2016-11-15T03:46:24.579Z,1016.94
2016-11-15T03:47:39.605Z,1016.88
2016-11-15T03:48:56.005Z,1016.82
2016-11-15T03:50:10.344Z,1016.87
2016-11-15T03:51:24.607Z,1016.82
2016-11-15T03:52:40.476Z,1016.78
2016-11-15T03:53:57.363Z,1016.73
2016-11-15T03:55:08.810Z,1016.71
2016-11-15T03:56:22.868Z,1016.73
2016-11-15T03:57:34.953Z,1016.71
2016-11-15T03:58:48.486Z,1016.72
2016-11-15T04:00:01.629Z,1016.67
2016-11-15T04:01:16.673Z,1016.61
2016-11-15T04:02:30.734Z,1016.61
2016-11-15T04:03:47.564Z,1016.61
2016-11-15T04:05:03.437Z,1016.58
2016-11-15T04:06:16.641Z,1016.55
2016-11-15T04:07:30.870Z,1016.54
2016-11-15T04:08:47.064Z,1016.53
2016-11-15T04:10:01.752Z,1016.49
2016-11-15T04:11:14.947Z,1016.55
2016-11-15T04:12:30.784Z,1016.58
2016-11-15T04:13:46.811Z,1016.57
2016-11-15T04:15:00.419Z,1016.53
2016-11-15T04:16:15.072Z,1016.55
2016-11-15T04:17:30.632Z,1016.53
2016-11-15T04:18:45.296Z,1016.5
2016-11-15T04:20:02.202Z,1016.48
2016-11-15T04:21:17.246Z,1016.49
2016-11-15T04:22:32.003Z,1016.46
2016-11-15T04:23:46.842Z,1016.48
2016-11-15T04:25:02.712Z,1016.47
2016-11-15T04:26:18.754Z,1016.46
2016-11-15T04:27:35.113Z,1016.47
2016-11-15T04:28:48.724Z,1016.48
2016-11-15T04:30:04.863Z,1016.5
2016-11-15T04:31:21.431Z,1016.49
2016-11-15T04:32:35.440Z,1016.53
2016-11-15T04:33:48.823Z,1016.47
2016-11-15T04:35:02.172Z,1016.46
2016-11-15T04:36:16.431Z,1016.44
2016-11-15T04:37:32.314Z,1016.48
2016-11-15T04:38:48.636Z,1016.42
2016-11-15T04:40:03.842Z,1016.41
2016-11-15T04:41:19.194Z,1016.42
2016-11-15T04:42:34.684Z,1016.39
2016-11-15T04:43:50.852Z,1016.33
2016-11-15T04:45:05.431Z,1016.36
2016-11-15T04:46:21.129Z,1016.33
2016-11-15T04:47:34.228Z,1016.37
2016-11-15T04:48:50.221Z,1016.34
2016-11-15T04:50:03.598Z,1016.29
2016-11-15T04:51:18.376Z,1016.3
2016-11-15T04:52:32.404Z,1016.3
2016-11-15T04:53:45.454Z,1016.28
2016-11-15T04:54:59.713Z,1016.3
2016-11-15T04:56:13.854Z,1016.23
2016-11-15T04:57:29.497Z,1016.22
2016-11-15T04:58:46.027Z,1016.25
2016-11-15T05:00:00.982Z,1016.25
2016-11-15T05:01:16.451Z,1016.23
2016-11-15T05:02:30.081Z,1016.21
2016-11-15T05:03:43.542Z,1016.27
2016-11-15T05:04:58.292Z,1016.24
2016-11-15T05:06:11.354Z,1016.21
2016-11-15T05:07:24.321Z,1016.19
2016-11-15T05:08:39.142Z,1016.18
2016-11-15T05:09:55.711Z,1016.16
2016-11-15T05:11:10.712Z,1016.15
2016-11-15T05:12:26.615Z,1016.14
2016-11-15T05:13:42.824Z,1016.16
2016-11-15T05:14:56.843Z,1016.13
2016-11-15T05:16:13.506Z,1016.06
2016-11-15T05:17:29.451Z,1016.14
2016-11-15T05:18:44.510Z,1016.12
2016-11-15T05:19:56.599Z,1016.16
2016-11-15T05:21:13.442Z,1016.2
2016-11-15T05:22:28.776Z,1016.16
2016-11-15T05:23:41.101Z,1016.13
2016-11-15T05:24:57.835Z,1016.12
2016-11-15T05:26:14.017Z,1016.17
2016-11-15T05:27:28.627Z,1016.15
2016-11-15T05:28:43.209Z,1016.11
2016-11-15T05:29:59.585Z,1016.08
2016-11-15T05:31:12.802Z,1016.13
2016-11-15T05:32:26.325Z,1016.04
2016-11-15T05:33:42.432Z,1016.09
2016-11-15T05:34:57.579Z,1016.07
2016-11-15T05:36:13.898Z,1016.1
2016-11-15T05:37:27.064Z,1016.08
2016-11-15T05:38:42.496Z,1016.04
2016-11-15T05:39:54.800Z,1016.05
2016-11-15T05:41:09.545Z,1016
2016-11-15T05:42:24.551Z,1016.02
2016-11-15T05:43:38.209Z,1016.06
2016-11-15T05:44:54.314Z,1016.04
2016-11-15T05:46:09.311Z,1016.01
2016-11-15T05:47:25.768Z,1015.96
2016-11-15T05:48:42.334Z,1015.94
2016-11-15T05:49:57.249Z,1015.88
2016-11-15T05:51:13.387Z,1015.87
2016-11-15T05:52:28.004Z,1015.89
2016-11-15T05:53:44.384Z,1015.93
2016-11-15T05:54:59.479Z,1015.86
2016-11-15T05:56:15.692Z,1015.86
2016-11-15T05:57:30.617Z,1015.84
2016-11-15T05:58:43.816Z,1015.82
2016-11-15T05:59:56.029Z,1015.84
2016-11-15T06:01:12.546Z,1015.83
2016-11-15T06:02:27.318Z,1015.82
2016-11-15T06:03:42.225Z,1015.86
2016-11-15T06:04:55.614Z,1015.84
2016-11-15T06:06:11.512Z,1015.81
2016-11-15T06:07:28.353Z,1015.82
2016-11-15T06:08:43.633Z,1015.84
2016-11-15T06:09:58.057Z,1015.86
2016-11-15T06:11:14.506Z,1015.86
2016-11-15T06:12:26.538Z,1015.91
2016-11-15T06:13:43.420Z,1015.91
2016-11-15T06:14:58.124Z,1015.9
2016-11-15T06:16:13.051Z,1015.9
2016-11-15T06:17:29.363Z,1015.91
2016-11-15T06:18:43.967Z,1015.87
2016-11-15T06:19:59.208Z,1015.89
2016-11-15T06:21:15.898Z,1015.91
2016-11-15T06:22:30.661Z,1015.92
2016-11-15T06:23:46.917Z,1015.87
2016-11-15T06:25:03.339Z,1015.87
2016-11-15T06:26:16.952Z,1015.84
2016-11-15T06:27:31.614Z,1015.8
2016-11-15T06:28:46.148Z,1015.79
2016-11-15T06:29:59.986Z,1015.82
2016-11-15T06:31:16.329Z,1015.78
2016-11-15T06:32:30.588Z,1015.74
2016-11-15T06:33:47.011Z,1015.81
2016-11-15T06:35:00.598Z,1015.82
2016-11-15T06:36:15.615Z,1015.84
2016-11-15T06:37:32.233Z,1015.8
2016-11-15T06:38:47.073Z,1015.82
2016-11-15T06:40:03.264Z,1015.81
2016-11-15T06:41:18.105Z,1015.81
2016-11-15T06:42:32.864Z,1015.76
2016-11-15T06:43:48.266Z,1015.78
2016-11-15T06:45:01.606Z,1015.77
2016-11-15T06:46:15.033Z,1015.74
2016-11-15T06:47:29.747Z,1015.75
2016-11-15T06:48:42.150Z,1015.74
2016-11-15T06:49:57.894Z,1015.79
2016-11-15T06:51:12.317Z,1015.74
2016-11-15T06:52:26.752Z,1015.76
2016-11-15T06:53:41.506Z,1015.73
2016-11-15T06:54:55.330Z,1015.72
2016-11-15T06:56:10.420Z,1015.75
2016-11-15T06:57:23.862Z,1015.68
2016-11-15T06:58:40.319Z,1015.74
2016-11-15T06:59:53.540Z,1015.67
2016-11-15T07:01:08.380Z,1015.77
2016-11-15T07:02:21.617Z,1015.74
2016-11-15T07:03:33.596Z,1015.79
2016-11-15T07:04:48.671Z,1015.81
2016-11-15T07:06:05.377Z,1015.71
2016-11-15T07:07:17.488Z,1015.76
2016-11-15T07:08:32.267Z,1015.75
2016-11-15T07:09:45.325Z,1015.77
2016-11-15T07:11:00.116Z,1015.83
2016-11-15T07:12:15.757Z,1015.89
2016-11-15T07:13:32.077Z,1015.83
2016-11-15T07:14:46.827Z,1015.9
2016-11-15T07:16:02.599Z,1015.92
2016-11-15T07:17:16.325Z,1015.95
2016-11-15T07:18:31.817Z,1015.98
2016-11-15T07:19:48.139Z,1016
2016-11-15T07:21:03.026Z,1015.97
2016-11-15T07:22:17.866Z,1016
2016-11-15T07:23:34.300Z,1016.02
2016-11-15T07:24:47.423Z,1016
2016-11-15T07:26:03.330Z,1016.01
2016-11-15T07:27:19.757Z,1016.05
2016-11-15T07:28:34.183Z,1015.94
2016-11-15T07:29:50.045Z,1015.96
2016-11-15T07:31:04.943Z,1015.96
2016-11-15T07:32:20.576Z,1015.99
2016-11-15T07:33:34.115Z,1015.97
2016-11-15T07:34:50.146Z,1015.9
2016-11-15T07:36:04.833Z,1015.96
2016-11-15T07:37:18.762Z,1015.84
2016-11-15T07:38:34.510Z,1015.84
2016-11-15T07:39:49.600Z,1015.91
2016-11-15T07:41:04.925Z,1015.89
2016-11-15T07:42:18.363Z,1015.92
2016-11-15T07:43:31.916Z,1015.9
2016-11-15T07:44:46.280Z,1015.96
2016-11-15T07:45:59.254Z,1015.95
2016-11-15T07:47:11.046Z,1015.93
2016-11-15T07:48:24.652Z,1015.87
2016-11-15T07:49:37.637Z,1015.86
2016-11-15T07:50:54.203Z,1015.83
2016-11-15T07:52:10.658Z,1015.84
2016-11-15T07:53:27.218Z,1015.9
2016-11-15T07:54:42.678Z,1015.85
2016-11-15T07:55:57.796Z,1015.84
2016-11-15T07:57:13.048Z,1015.77
2016-11-15T07:58:24.904Z,1015.84
2016-11-15T07:59:39.301Z,1015.81
2016-11-15T08:00:54.170Z,1015.76
2016-11-15T08:02:07.102Z,1015.8
2016-11-15T08:03:20.587Z,1015.8
2016-11-15T08:04:35.829Z,1015.8
2016-11-15T08:05:52.816Z,1015.83
2016-11-15T08:07:05.532Z,1015.83
2016-11-15T08:08:20.220Z,1015.83
2016-11-15T08:09:36.950Z,1015.88
2016-11-15T08:10:50.544Z,1015.95
2016-11-15T08:12:05.614Z,1015.92
2016-11-15T08:13:22.397Z,1015.94
2016-11-15T08:14:35.952Z,1015.95
2016-11-15T08:15:51.115Z,1015.98
2016-11-15T08:17:06.654Z,1015.9
2016-11-15T08:18:21.328Z,1015.84
2016-11-15T08:19:32.767Z,1015.83
2016-11-15T08:20:48.211Z,1015.82
2016-11-15T08:22:02.720Z,1015.84
2016-11-15T08:23:18.235Z,1015.88
2016-11-15T08:24:34.793Z,1015.85
2016-11-15T08:25:49.047Z,1015.85
2016-11-15T08:27:03.983Z,1015.93
2016-11-15T08:28:20.576Z,1015.96
2016-11-15T08:29:37.109Z,1016.03
2016-11-15T08:30:51.953Z,1016.01
2016-11-15T08:32:06.608Z,1016.06
2016-11-15T08:33:21.391Z,1016.03
2016-11-15T08:34:37.553Z,1015.99
2016-11-15T08:35:52.645Z,1016.05
2016-11-15T08:37:08.978Z,1016.1
2016-11-15T08:38:25.104Z,1016.03
2016-11-15T08:39:39.627Z,1015.96
2016-11-15T08:40:55.899Z,1015.97
2016-11-15T08:42:11.144Z,1015.98
2016-11-15T08:43:25.578Z,1015.99
2016-11-15T08:44:42.023Z,1016.06
2016-11-15T08:45:55.633Z,1016
2016-11-15T08:47:11.804Z,1016.02
2016-11-15T08:48:26.547Z,1015.96
2016-11-15T08:49:41.594Z,1015.97
2016-11-15T08:50:56.024Z,1015.99
2016-11-15T08:52:10.060Z,1015.96
2016-11-15T08:53:25.337Z,1016.02
2016-11-15T08:54:38.797Z,1016.01
2016-11-15T08:56:01.069Z,1016
2016-11-15T08:57:16.732Z,1015.97
2016-11-15T08:58:30.252Z,1015.99
2016-11-15T08:59:43.461Z,1016.01
2016-11-15T09:00:58.825Z,1015.94
2016-11-15T09:02:12.790Z,1015.91
2016-11-15T09:03:29.183Z,1015.89
2016-11-15T09:04:43.592Z,1015.96
2016-11-15T09:05:58.838Z,1015.91
2016-11-15T09:07:13.857Z,1015.92
2016-11-15T09:08:29.039Z,1015.9
2016-11-15T09:09:42.613Z,1015.89
2016-11-15T09:10:57.247Z,1015.9
2016-11-15T09:12:12.355Z,1015.87
2016-11-15T09:13:27.173Z,1015.83
2016-11-15T09:14:38.800Z,1015.85
2016-11-15T09:15:55.771Z,1015.88
2016-11-15T09:17:12.989Z,1015.85
2016-11-15T09:18:26.483Z,1015.85
2016-11-15T09:19:41.059Z,1015.89
2016-11-15T09:20:57.236Z,1015.82
2016-11-15T09:22:10.904Z,1015.92
2016-11-15T09:23:27.683Z,1015.9
2016-11-15T09:24:43.849Z,1015.9
2016-11-15T09:25:58.626Z,1015.9
2016-11-15T09:27:15.329Z,1015.9
2016-11-15T09:28:31.658Z,1015.9
2016-11-15T09:29:46.519Z,1015.88
2016-11-15T09:31:03.078Z,1015.95
2016-11-15T09:32:19.523Z,1015.95
2016-11-15T09:33:34.106Z,1016.06
2016-11-15T09:34:48.818Z,1015.97
2016-11-15T09:36:04.731Z,1015.89
2016-11-15T09:37:19.170Z,1015.86
2016-11-15T09:38:33.992Z,1015.79
2016-11-15T09:39:48.758Z,1015.76
2016-11-15T09:41:02.417Z,1015.75
2016-11-15T09:42:16.936Z,1015.76
2016-11-15T09:43:32.151Z,1015.68
2016-11-15T09:44:46.764Z,1015.55
2016-11-15T09:46:01.660Z,1015.53
2016-11-15T09:47:14.972Z,1015.59
2016-11-15T09:48:30.625Z,1015.59
2016-11-15T09:49:45.063Z,1015.65
2016-11-15T09:51:01.115Z,1015.64
2016-11-15T09:52:17.645Z,1015.69
2016-11-15T09:53:32.627Z,1015.61
2016-11-15T09:54:48.271Z,1015.67
2016-11-15T09:56:02.615Z,1015.73
2016-11-15T09:57:17.508Z,1015.79
2016-11-15T09:58:33.770Z,1015.75
2016-11-15T09:59:47.056Z,1015.75
2016-11-15T10:01:02.758Z,1015.73
2016-11-15T10:02:15.738Z,1015.72
2016-11-15T10:03:29.771Z,1015.72
2016-11-15T10:04:44.751Z,1015.71
2016-11-15T10:06:00.042Z,1015.71
2016-11-15T10:07:16.493Z,1015.77
2016-11-15T10:08:29.772Z,1015.73
2016-11-15T10:09:45.758Z,1015.71
2016-11-15T10:10:58.929Z,1015.76
2016-11-15T10:12:14.570Z,1015.78
2016-11-15T10:13:30.489Z,1015.77
2016-11-15T10:14:45.458Z,1015.77
2016-11-15T10:16:00.301Z,1015.78
2016-11-15T10:17:15.084Z,1015.79
2016-11-15T10:18:29.261Z,1015.78
2016-11-15T10:19:43.688Z,1015.72
2016-11-15T10:20:59.641Z,1015.65
2016-11-15T10:22:13.230Z,1015.7
2016-11-15T10:23:29.762Z,1015.7
2016-11-15T10:24:46.264Z,1015.69
2016-11-15T10:26:00.703Z,1015.69
2016-11-15T10:27:14.082Z,1015.64
2016-11-15T10:28:29.167Z,1015.61
2016-11-15T10:29:45.234Z,1015.72
2016-11-15T10:30:59.893Z,1015.76
2016-11-15T10:32:13.529Z,1015.73
2016-11-15T10:33:29.725Z,1015.78
2016-11-15T10:36:10.007Z,1015.73
2016-11-15T10:37:25.014Z,1015.68
2016-11-15T10:38:40.314Z,1015.77
2016-11-15T10:39:56.766Z,1015.78
2016-11-15T10:41:11.459Z,1015.77
2016-11-15T10:42:28.441Z,1015.66
2016-11-15T10:43:42.554Z,1015.69
2016-11-15T10:44:54.363Z,1015.71
2016-11-15T10:46:08.567Z,1015.66
2016-11-15T10:47:24.054Z,1015.7
2016-11-15T10:48:39.289Z,1015.73
2016-11-15T10:49:52.709Z,1015.69
2016-11-15T10:51:07.633Z,1015.68
2016-11-15T10:52:21.034Z,1015.73
2016-11-15T10:53:35.723Z,1015.79
2016-11-15T10:54:52.410Z,1015.73
2016-11-15T10:56:07.598Z,1015.74
2016-11-15T10:57:22.431Z,1015.68
2016-11-15T10:58:37.476Z,1015.68
2016-11-15T10:59:52.431Z,1015.66
2016-11-15T11:01:07.369Z,1015.67
2016-11-15T11:02:23.642Z,1015.67
2016-11-15T11:03:40.042Z,1015.68
2016-11-15T11:04:55.100Z,1015.62
2016-11-15T11:06:11.208Z,1015.55
2016-11-15T11:07:26.853Z,1015.55
2016-11-15T11:08:40.322Z,1015.66
2016-11-15T11:09:53.559Z,1015.62
2016-11-15T11:11:09.952Z,1015.64
2016-11-15T11:12:26.234Z,1015.61
2016-11-15T11:13:41.231Z,1015.59
2016-11-15T11:14:55.108Z,1015.55
2016-11-15T11:16:10.434Z,1015.56
2016-11-15T11:17:26.207Z,1015.54
2016-11-15T11:18:41.432Z,1015.56
2016-11-15T11:19:55.409Z,1015.41
2016-11-15T11:21:11.688Z,1015.54
2016-11-15T11:22:28.797Z,1015.53
2016-11-15T11:23:42.593Z,1015.47
2016-11-15T11:24:57.447Z,1015.47
2016-11-15T11:26:12.264Z,1015.45
2016-11-15T11:27:26.726Z,1015.43
2016-11-15T11:28:41.671Z,1015.36
2016-11-15T11:29:57.991Z,1015.44
2016-11-15T11:31:11.768Z,1015.41
2016-11-15T11:32:27.141Z,1015.44
2016-11-15T11:33:40.473Z,1015.44
2016-11-15T11:34:55.062Z,1015.38
2016-11-15T11:36:12.207Z,1015.42
2016-11-15T11:37:26.679Z,1015.4
2016-11-15T11:38:41.909Z,1015.38
2016-11-15T11:39:57.215Z,1015.42
2016-11-15T11:41:12.944Z,1015.46
2016-11-15T11:42:26.294Z,1015.42
2016-11-15T11:43:41.806Z,1015.38
2016-11-15T11:44:57.730Z,1015.34
2016-11-15T11:46:14.666Z,1015.35
2016-11-15T11:47:29.743Z,1015.3
2016-11-15T11:48:46.085Z,1015.37
2016-11-15T11:50:00.872Z,1015.33
2016-11-15T11:51:16.654Z,1015.33
2016-11-15T11:52:31.641Z,1015.27
2016-11-15T11:53:44.420Z,1015.25
2016-11-15T11:55:00.071Z,1015.12
2016-11-15T11:56:14.404Z,1015.22
2016-11-15T11:57:31.210Z,1015.25
2016-11-15T11:58:45.959Z,1015.26
2016-11-15T12:00:00.913Z,1015.28
2016-11-15T12:01:17.548Z,1015.2
2016-11-15T12:02:33.556Z,1015.23
2016-11-15T12:03:47.104Z,1015.2
2016-11-15T12:05:02.973Z,1015.16
2016-11-15T12:06:17.840Z,1015.16
2016-11-15T12:07:34.001Z,1015.12
2016-11-15T12:08:50.733Z,1015.08
2016-11-15T12:10:07.436Z,1015.03
2016-11-15T12:11:22.890Z,1015.06
2016-11-15T12:12:37.589Z,1015.06
2016-11-15T12:13:52.661Z,1015.09
2016-11-15T12:15:06.200Z,1015.05
2016-11-15T12:16:22.683Z,1015.12
2016-11-15T12:17:34.328Z,1015.07
2016-11-15T12:18:48.409Z,1015.09
2016-11-15T12:20:01.941Z,1015.05
2016-11-15T12:21:17.839Z,1015.12
2016-11-15T12:22:33.304Z,1015.04
2016-11-15T12:23:49.625Z,1015.07
2016-11-15T12:25:03.278Z,1015.05
2016-11-15T12:26:19.831Z,1015.02
2016-11-15T12:27:33.269Z,1015.08
2016-11-15T12:28:48.789Z,1015.09
2016-11-15T12:30:03.599Z,1015.07
2016-11-15T12:31:18.308Z,1015.09
2016-11-15T12:32:31.684Z,1015.07
2016-11-15T12:33:45.558Z,1015.06
2016-11-15T12:35:01.539Z,1015.03
2016-11-15T12:36:16.948Z,1015.02
2016-11-15T12:37:33.273Z,1015
2016-11-15T12:38:46.370Z,1014.95
2016-11-15T12:40:02.831Z,1014.98
2016-11-15T12:41:16.059Z,1014.97
2016-11-15T12:42:33.035Z,1014.91
2016-11-15T12:43:46.628Z,1014.81
2016-11-15T12:44:58.582Z,1014.89
2016-11-15T12:46:13.769Z,1014.84
2016-11-15T12:47:29.252Z,1014.86
2016-11-15T12:48:44.066Z,1014.86
2016-11-15T12:49:57.308Z,1014.8
2016-11-15T12:51:11.614Z,1014.78
2016-11-15T12:52:27.631Z,1014.79
2016-11-15T12:53:41.281Z,1014.7
2016-11-15T12:54:57.753Z,1014.78
2016-11-15T12:56:14.091Z,1014.72
2016-11-15T12:57:30.881Z,1014.77
2016-11-15T12:58:44.910Z,1014.7
2016-11-15T13:00:01.226Z,1014.74
2016-11-15T13:01:15.856Z,1014.68
2016-11-15T13:02:30.211Z,1014.67
2016-11-15T13:03:44.230Z,1014.62
2016-11-15T13:04:59.308Z,1014.63
2016-11-15T13:06:13.821Z,1014.6
2016-11-15T13:07:29.119Z,1014.55
2016-11-15T13:08:45.825Z,1014.64
2016-11-15T13:09:59.244Z,1014.65
2016-11-15T13:11:14.213Z,1014.59
2016-11-15T13:12:27.736Z,1014.64
2016-11-15T13:13:42.851Z,1014.59
2016-11-15T13:14:59.712Z,1014.52
2016-11-15T13:16:14.473Z,1014.57
2016-11-15T13:17:31.418Z,1014.57
2016-11-15T13:18:45.060Z,1014.51
2016-11-15T13:20:01.957Z,1014.48
2016-11-15T13:21:14.685Z,1014.47
2016-11-15T13:22:31.186Z,1014.54
2016-11-15T13:23:45.813Z,1014.53
2016-11-15T13:24:59.382Z,1014.58
2016-11-15T13:26:15.261Z,1014.53
2016-11-15T13:27:31.180Z,1014.51
2016-11-15T13:28:42.688Z,1014.51
2016-11-15T13:29:57.988Z,1014.53
2016-11-15T13:31:15.333Z,1014.54
2016-11-15T13:32:30.044Z,1014.5
2016-11-15T13:33:44.020Z,1014.54
2016-11-15T13:34:58.914Z,1014.51
2016-11-15T13:36:13.655Z,1014.49
2016-11-15T13:37:28.504Z,1014.55
2016-11-15T13:38:45.071Z,1014.55
2016-11-15T13:40:01.775Z,1014.6
2016-11-15T13:41:15.317Z,1014.56
2016-11-15T13:42:28.622Z,1014.56
2016-11-15T13:43:40.701Z,1014.53
2016-11-15T13:44:54.297Z,1014.55
2016-11-15T13:46:10.470Z,1014.53
2016-11-15T13:47:22.516Z,1014.58
2016-11-15T13:48:37.628Z,1014.55
2016-11-15T13:49:52.513Z,1014.55
2016-11-15T13:51:08.134Z,1014.46
2016-11-15T13:52:24.412Z,1014.44
2016-11-15T13:53:36.738Z,1014.49
2016-11-15T13:54:52.021Z,1014.45
2016-11-15T13:56:07.390Z,1014.51
2016-11-15T13:57:22.009Z,1014.54
2016-11-15T13:58:35.257Z,1014.5
2016-11-15T13:59:51.287Z,1014.53
2016-11-15T14:01:05.587Z,1014.53
2016-11-15T14:02:20.824Z,1014.48
2016-11-15T14:03:34.252Z,1014.43
2016-11-15T14:04:47.238Z,1014.43
2016-11-15T14:06:00.907Z,1014.48
2016-11-15T14:07:14.680Z,1014.48
2016-11-15T14:08:29.749Z,1014.48
2016-11-15T14:09:46.338Z,1014.51
2016-11-15T14:11:01.843Z,1014.48
2016-11-15T14:12:15.512Z,1014.54
2016-11-15T14:13:30.204Z,1014.51
2016-11-15T14:14:43.856Z,1014.51
2016-11-15T14:15:59.498Z,1014.54
2016-11-15T14:17:15.778Z,1014.51
2016-11-15T14:18:29.507Z,1014.51
2016-11-15T14:19:42.603Z,1014.45
2016-11-15T14:20:58.065Z,1014.51
2016-11-15T14:22:14.518Z,1014.55
2016-11-15T14:23:31.488Z,1014.46
2016-11-15T14:24:45.004Z,1014.54
2016-11-15T14:26:00.415Z,1014.53
2016-11-15T14:27:13.889Z,1014.5
2016-11-15T14:28:28.479Z,1014.47
2016-11-15T14:29:40.518Z,1014.46
2016-11-15T14:30:55.040Z,1014.46
2016-11-15T14:32:08.652Z,1014.5
2016-11-15T14:33:22.258Z,1014.48
2016-11-15T14:34:38.195Z,1014.55
2016-11-15T14:35:51.272Z,1014.55
2016-11-15T14:37:05.726Z,1014.5
2016-11-15T14:38:19.244Z,1014.44
2016-11-15T14:39:32.720Z,1014.42
2016-11-15T14:40:49.195Z,1014.36
2016-11-15T14:42:02.478Z,1014.3
2016-11-15T14:43:17.059Z,1014.29
2016-11-15T14:44:30.649Z,1014.31
2016-11-15T14:45:46.679Z,1014.3
2016-11-15T14:47:01.476Z,1014.36
2016-11-15T14:48:13.476Z,1014.28
2016-11-15T14:49:25.670Z,1014.28
2016-11-15T14:50:42.126Z,1014.26
2016-11-15T14:51:58.310Z,1014.26
2016-11-15T14:53:12.534Z,1014.25
2016-11-15T14:54:28.439Z,1014.2
2016-11-15T14:55:42.315Z,1014.19
2016-11-15T14:56:56.998Z,1014.13
2016-11-15T14:58:13.519Z,1014.09
2016-11-15T14:59:30.134Z,1014.14
2016-11-15T15:00:45.216Z,1014.17
2016-11-15T15:02:00.378Z,1014.2
2016-11-15T15:03:17.260Z,1014.16
2016-11-15T15:04:32.539Z,1014.21
2016-11-15T15:05:48.027Z,1014.25
2016-11-15T15:07:04.959Z,1014.21
2016-11-15T15:08:18.371Z,1014.26
2016-11-15T15:09:33.397Z,1014.3
2016-11-15T15:10:48.085Z,1014.34